Terminal Aerodrome Forecast
Issued by NWS Sioux Falls, SD

Home | Current Version | Previous Version | Graphics & Text | Print | Product List | Glossary On
Versions: 1 2 3 4 5 6 7 8 9 10 11 12 13 14 15 16 17 18 19 20 21 22 23 24 25 26 27 28 29 30 31 32 33 34 35
489
FTUS43 KFSD 132221 AAA
TAFSUX
TAF AMD
KSUX 132221Z 1322/1418 14015KT P6SM OVC040
     FM132300 14016KT 3SM -SN OVC030
      TEMPO 1323/1324 2SM -SN OVC015
     FM140200 14015G25KT 6SM -SN OVC030
     FM140700 15017G25KT 2SM -SN BLSN OVC020
     FM141200 15015G24KT 4SM -SN OVC025
     FM141400 22006KT P6SM OVC025=

USA.gov is the U.S. government's official web portal to all federal, state and local government web resources and services.